Time;durP1;ratioP1;P1;durP2;ratioP2;P2;SDS_P1;SDS_P2;PMS_P1;PMS_P2;Temp;Humidity;BMP_temperature;BMP_pressure;BME280_temperature;BME280_humidity;BME280_pressure;Samples;Min_cycle;Max_cycle;Signal;HPM_P1;HPM_P2
2021/07/19 00:02:00;;;;;;;4.05;3.40;;;18.20;99.90;;;;;;5028433;28;20089;-36
2021/07/19 00:04:26;;;;;;;4.68;3.50;;;18.20;99.90;;;;;;5015157;28;20436;-36
2021/07/19 00:06:52;;;;;;;4.95;3.70;;;18.20;99.90;;;;;;5020793;28;20457;-36
2021/07/19 00:09:18;;;;;;;4.38;3.50;;;18.20;99.90;;;;;;5020995;28;20080;-36
2021/07/19 00:11:44;;;;;;;4.43;3.67;;;18.20;99.90;;;;;;5008538;28;20430;-36
2021/07/19 00:14:10;;;;;;;8.50;3.90;;;18.20;99.90;;;;;;5018808;28;20148;-36
2021/07/19 00:16:36;;;;;;;4.40;4.00;;;18.20;99.90;;;;;;5011117;28;20026;-36
2021/07/19 00:19:03;;;;;;;5.00;3.90;;;18.20;99.90;;;;;;5014917;28;20144;-36
2021/07/19 00:21:29;;;;;;;4.55;3.78;;;18.10;99.90;;;;;;5013719;28;20014;-36
2021/07/19 00:23:54;;;;;;;7.88;4.50;;;18.10;99.90;;;;;;5012791;28;20393;-36
2021/07/19 00:26:21;;;;;;;5.90;4.20;;;18.10;99.90;;;;;;5016288;28;20503;-36
2021/07/19 00:28:50;;;;;;;7.40;3.88;;;18.00;99.90;;;;;;5011454;28;20469;-36
2021/07/19 00:31:16;;;;;;;7.40;4.38;;;18.00;99.90;;;;;;5022448;28;20029;-36
2021/07/19 00:33:43;;;;;;;7.72;4.10;;;18.00;99.90;;;;;;5012571;28;20025;-36
2021/07/19 00:36:10;;;;;;;5.72;4.35;;;18.00;99.90;;;;;;5023790;28;20404;-36
2021/07/19 00:38:36;;;;;;;7.18;4.65;;;18.00;99.90;;;;;;5012943;28;20018;-36
2021/07/19 00:41:03;;;;;;;5.97;4.50;;;18.00;99.90;;;;;;5023031;28;20014;-36
2021/07/19 00:43:28;;;;;;;7.45;4.28;;;17.90;99.90;;;;;;5011872;28;20124;-36
2021/07/19 00:45:54;;;;;;;7.25;4.57;;;17.80;99.90;;;;;;5023104;28;20167;-36
2021/07/19 00:48:23;;;;;;;4.53;3.88;;;17.80;99.90;;;;;;5011474;28;20530;-36
2021/07/19 00:50:49;;;;;;;6.07;4.10;;;17.90;99.90;;;;;;5025028;28;20384;-36
2021/07/19 00:53:15;;;;;;;5.85;4.30;;;17.90;99.90;;;;;;5012097;28;20014;-36
2021/07/19 00:55:46;;;;;;;4.68;3.92;;;17.90;99.90;;;;;;5021435;28;20427;-36
2021/07/19 00:58:14;;;;;;;5.53;3.83;;;17.90;99.90;;;;;;5012793;28;20026;-36
2021/07/19 01:00:46;;;;;;;5.00;4.15;;;18.00;99.90;;;;;;5020783;28;20279;-36
2021/07/19 01:03:13;;;;;;;5.70;3.92;;;18.00;99.90;;;;;;5012999;28;20141;-36
2021/07/19 01:05:41;;;;;;;6.93;4.80;;;18.00;99.90;;;;;;5018362;28;20025;-37
2021/07/19 01:08:07;;;;;;;6.30;4.50;;;18.00;99.90;;;;;;5013714;28;20034;-36
2021/07/19 01:10:35;;;;;;;5.50;4.30;;;18.00;99.90;;;;;;5016679;28;20017;-36
2021/07/19 01:13:02;;;;;;;9.85;4.93;;;18.00;99.90;;;;;;5018199;28;20109;-36
2021/07/19 01:15:30;;;;;;;6.63;4.60;;;18.00;99.90;;;;;;5013552;28;20022;-36
2021/07/19 01:17:56;;;;;;;5.97;4.28;;;18.00;99.90;;;;;;5020100;28;20056;-36
2021/07/19 01:20:31;;;;;;;6.50;4.07;;;17.90;99.90;;;;;;5012550;28;20122;-36
2021/07/19 01:23:26;;;;;;;4.75;4.00;;;17.90;99.90;;;;;;5010826;28;20021;-36
2021/07/19 01:26:00;;;;;;;8.73;4.45;;;17.80;99.90;;;;;;5027614;28;20021;-36
2021/07/19 01:28:43;;;;;;;5.25;3.92;;;17.70;99.90;;;;;;5023304;28;20500;-36
2021/07/19 01:31:18;;;;;;;4.47;3.72;;;17.60;99.90;;;;;;5025708;28;20022;-36
2021/07/19 01:33:46;;;;;;;6.10;4.00;;;17.60;99.90;;;;;;5024203;28;20040;-36
2021/07/19 01:36:14;;;;;;;5.13;3.95;;;17.60;99.90;;;;;;5026867;28;20029;-36
2021/07/19 01:38:40;;;;;;;4.93;4.05;;;17.60;99.90;;;;;;5022477;28;20067;-36
2021/07/19 01:41:06;;;;;;;4.70;3.65;;;17.60;99.90;;;;;;5028077;28;20010;-36
2021/07/19 01:43:33;;;;;;;7.50;4.00;;;17.50;99.90;;;;;;5019677;28;20112;-36
2021/07/19 01:46:01;;;;;;;5.38;4.00;;;17.50;99.90;;;;;;5029608;28;20152;-36
2021/07/19 01:48:29;;;;;;;6.35;4.30;;;17.50;99.90;;;;;;5019376;28;20473;-36
2021/07/19 01:50:55;;;;;;;6.32;4.30;;;17.50;99.90;;;;;;5029369;28;20097;-36
2021/07/19 01:53:22;;;;;;;4.32;3.90;;;17.40;99.90;;;;;;5019592;28;20104;-36
2021/07/19 01:55:48;;;;;;;5.50;4.03;;;17.50;99.90;;;;;;5030700;28;20025;-36
2021/07/19 01:58:14;;;;;;;6.63;4.00;;;17.40;99.90;;;;;;5017784;28;20025;-36
2021/07/19 02:00:40;;;;;;;4.63;3.85;;;17.40;99.90;;;;;;5030217;28;20067;-36
2021/07/19 02:03:06;;;;;;;5.75;3.55;;;17.40;99.90;;;;;;5017972;28;20045;-36
2021/07/19 02:05:32;;;;;;;5.28;4.22;;;17.40;99.90;;;;;;5028967;28;20024;-37
2021/07/19 02:08:01;;;;;;;5.78;4.25;;;17.30;99.90;;;;;;5024272;28;20519;-36
2021/07/19 02:10:29;;;;;;;4.85;3.95;;;17.40;99.90;;;;;;5012836;28;20026;-36
2021/07/19 02:12:56;;;;;;;5.55;4.03;;;17.40;99.90;;;;;;5017942;28;20017;-36
2021/07/19 02:15:23;;;;;;;9.80;5.22;;;17.40;99.90;;;;;;5014671;28;20030;-36
2021/07/19 02:17:57;;;;;;;7.13;4.55;;;17.40;99.90;;;;;;5015713;28;20060;-36
2021/07/19 02:20:24;;;;;;;5.32;3.97;;;17.40;99.90;;;;;;5015488;28;20034;-36
2021/07/19 02:22:51;;;;;;;5.60;4.18;;;17.40;99.90;;;;;;5014793;28;20014;-36
2021/07/19 02:25:17;;;;;;;5.32;3.95;;;17.40;99.90;;;;;;5017899;28;20026;-36
2021/07/19 02:27:45;;;;;;;8.65;4.68;;;17.40;99.90;;;;;;5011508;28;20014;-36
2021/07/19 02:30:13;;;;;;;6.32;4.03;;;17.40;99.90;;;;;;5020029;28;20021;-36
2021/07/19 02:32:45;;;;;;;6.60;5.00;;;17.40;99.90;;;;;;5010959;28;20026;-36
2021/07/19 02:35:13;;;;;;;6.95;4.57;;;17.30;99.90;;;;;;5020975;28;20077;-36
2021/07/19 02:37:42;;;;;;;5.10;4.43;;;17.40;99.90;;;;;;5011625;28;20064;-36
2021/07/19 02:40:09;;;;;;;6.13;4.50;;;17.40;99.90;;;;;;5020829;28;20049;-36
2021/07/19 02:42:43;;;;;;;6.45;4.70;;;17.30;99.90;;;;;;5009372;28;20071;-36
2021/07/19 02:45:14;;;;;;;6.60;4.60;;;17.30;99.90;;;;;;5017792;28;20026;-36
2021/07/19 02:47:42;;;;;;;5.95;4.72;;;17.20;99.90;;;;;;5009072;28;20076;-36
2021/07/19 02:50:09;;;;;;;6.47;4.80;;;17.10;99.90;;;;;;5021598;28;20424;-36
2021/07/19 02:52:37;;;;;;;5.35;4.00;;;17.10;99.90;;;;;;5009499;28;20018;-36
2021/07/19 02:55:05;;;;;;;5.50;4.55;;;17.10;99.90;;;;;;5021507;28;20079;-36
2021/07/19 02:57:31;;;;;;;9.55;4.78;;;17.00;99.90;;;;;;5009651;28;20087;-36
2021/07/19 02:59:57;;;;;;;7.35;5.28;;;17.00;99.90;;;;;;5021292;28;20021;-36
2021/07/19 03:02:25;;;;;;;6.03;5.20;;;16.90;99.90;;;;;;5009038;28;20046;-36
2021/07/19 03:04:55;;;;;;;7.13;5.13;;;16.80;99.90;;;;;;5018889;28;20128;-36
2021/07/19 03:07:22;;;;;;;7.28;5.45;;;16.70;99.90;;;;;;5020784;28;20032;-36
2021/07/19 03:09:55;;;;;;;7.78;5.43;;;16.70;99.90;;;;;;5021944;28;20021;-36
2021/07/19 03:12:23;;;;;;;7.80;5.28;;;16.60;99.90;;;;;;5025183;28;20167;-36
2021/07/19 03:14:50;;;;;;;8.02;5.28;;;16.60;99.90;;;;;;5022663;28;20462;-36
2021/07/19 03:17:18;;;;;;;7.82;5.10;;;16.60;99.90;;;;;;5024231;28;20029;-36
2021/07/19 03:19:46;;;;;;;5.80;5.07;;;16.60;99.90;;;;;;5023864;28;20022;-36
2021/07/19 03:22:13;;;;;;;6.57;5.35;;;16.50;99.90;;;;;;5020753;28;20061;-37
2021/07/19 03:24:39;;;;;;;9.10;5.43;;;16.50;99.90;;;;;;5026352;28;20040;-36
2021/07/19 03:27:05;;;;;;;5.70;5.07;;;16.50;99.90;;;;;;5019103;28;20013;-36
2021/07/19 03:29:32;;;;;;;9.40;5.30;;;16.40;99.90;;;;;;5026582;28;20022;-36
2021/07/19 03:31:59;;;;;;;8.48;5.20;;;16.40;99.90;;;;;;5018328;28;20485;-36
2021/07/19 03:34:25;;;;;;;8.48;5.50;;;16.40;99.90;;;;;;5027486;28;20021;-36
2021/07/19 03:36:54;;;;;;;7.22;5.25;;;16.40;99.90;;;;;;5017760;28;20021;-36
2021/07/19 03:39:21;;;;;;;7.43;5.22;;;16.40;99.90;;;;;;5029223;28;20044;-37
2021/07/19 03:41:49;;;;;;;7.53;5.50;;;16.40;99.90;;;;;;5017061;28;20013;-39
2021/07/19 03:44:15;;;;;;;6.95;5.13;;;16.30;99.90;;;;;;5028260;28;20036;-36
2021/07/19 03:46:43;;;;;;;7.15;5.65;;;16.30;99.90;;;;;;5015733;28;20377;-36
2021/07/19 03:49:12;;;;;;;7.90;5.55;;;16.30;99.90;;;;;;5029585;28;20059;-36
2021/07/19 03:51:38;;;;;;;10.43;5.85;;;16.30;99.90;;;;;;5016312;28;20148;-35
2021/07/19 03:54:04;;;;;;;7.90;5.22;;;16.30;99.90;;;;;;5026935;28;20129;-36
2021/07/19 03:56:30;;;;;;;7.90;5.75;;;16.20;99.90;;;;;;5019667;28;20455;-36
2021/07/19 03:58:57;;;;;;;7.80;5.95;;;16.20;99.90;;;;;;5025438;28;20427;-36
2021/07/19 04:01:24;;;;;;;7.90;5.75;;;16.20;99.90;;;;;;5021587;28;20014;-36
2021/07/19 04:03:54;;;;;;;10.25;6.18;;;16.20;99.90;;;;;;5024633;28;20136;-35
2021/07/19 04:06:21;;;;;;;8.88;6.18;;;16.20;99.90;;;;;;5028186;28;20018;-36
2021/07/19 04:08:48;;;;;;;8.90;6.22;;;16.20;99.90;;;;;;5032875;28;20049;-36
2021/07/19 04:11:16;;;;;;;7.35;6.05;;;16.20;99.90;;;;;;5027262;28;20021;-36
2021/07/19 04:13:42;;;;;;;10.65;6.10;;;16.20;99.90;;;;;;5022790;28;20455;-36
2021/07/19 04:16:08;;;;;;;6.90;5.45;;;16.10;99.90;;;;;;5014178;28;20097;-36
2021/07/19 04:18:35;;;;;;;7.03;5.05;;;16.10;99.90;;;;;;5022994;28;20022;-36
2021/07/19 04:21:01;;;;;;;7.93;6.00;;;16.10;99.90;;;;;;5013681;28;20026;-36
2021/07/19 04:23:27;;;;;;;7.97;6.05;;;16.10;99.90;;;;;;5023189;28;20026;-36
2021/07/19 04:25:53;;;;;;;9.52;6.30;;;16.10;99.90;;;;;;5012756;28;20108;-36
2021/07/19 04:28:20;;;;;;;9.68;5.55;;;16.10;99.90;;;;;;5024600;28;20101;-36
2021/07/19 04:30:46;;;;;;;8.20;5.60;;;16.10;99.90;;;;;;5012839;28;20513;-36
2021/07/19 04:33:20;;;;;;;8.43;5.95;;;16.10;99.90;;;;;;5023346;28;20129;-36
2021/07/19 04:35:46;;;;;;;9.07;5.45;;;16.10;99.90;;;;;;5013023;28;20030;-36
2021/07/19 04:38:15;;;;;;;6.97;5.38;;;16.10;99.90;;;;;;5023115;28;20457;-36
2021/07/19 04:40:41;;;;;;;8.07;5.57;;;16.10;99.90;;;;;;5011869;28;20029;-36
2021/07/19 04:43:06;;;;;;;8.25;5.47;;;16.10;99.90;;;;;;5021181;28;20460;-36
2021/07/19 04:45:32;;;;;;;9.63;5.55;;;16.20;99.90;;;;;;5014374;28;20171;-36
2021/07/19 04:47:57;;;;;;;9.75;5.93;;;16.20;99.90;;;;;;5018500;28;20010;-36
2021/07/19 04:50:23;;;;;;;8.68;6.07;;;16.20;99.90;;;;;;5017230;28;20033;-36
2021/07/19 04:52:49;;;;;;;9.07;5.57;;;16.20;99.90;;;;;;5015976;28;20040;-36
2021/07/19 04:55:23;;;;;;;6.88;5.70;;;16.20;99.90;;;;;;5019559;28;20026;-36
2021/07/19 04:57:53;;;;;;;7.82;5.72;;;16.30;99.90;;;;;;5015230;28;20021;-36
2021/07/19 05:00:20;;;;;;;10.30;6.40;;;16.40;99.90;;;;;;5020501;28;20385;-36
2021/07/19 05:02:47;;;;;;;8.60;5.88;;;16.40;99.90;;;;;;5012728;28;20040;-36
2021/07/19 05:05:17;;;;;;;8.30;5.38;;;16.40;99.90;;;;;;5023144;28;20029;-36
2021/07/19 05:07:44;;;;;;;7.20;5.40;;;16.50;99.90;;;;;;5020237;28;20025;-36
2021/07/19 05:10:15;;;;;;;11.07;5.88;;;16.50;99.90;;;;;;5020583;28;20023;-36
2021/07/19 05:12:43;;;;;;;7.43;6.00;;;16.60;99.90;;;;;;5030215;28;20109;-36
2021/07/19 05:15:13;;;;;;;8.50;5.70;;;16.70;99.90;;;;;;5017418;28;20018;-36
2021/07/19 05:17:40;;;;;;;6.95;5.50;;;16.80;99.90;;;;;;5011494;28;20026;-36
2021/07/19 05:20:13;;;;;;;6.38;5.15;;;16.90;99.90;;;;;;5019184;28;20014;-36
2021/07/19 05:22:45;;;;;;;5.30;4.80;;;16.90;99.90;;;;;;5031063;28;20040;-36
2021/07/19 05:25:13;;;;;;;7.43;5.50;;;17.00;99.90;;;;;;5018724;28;20045;-36
2021/07/19 05:28:00;;;;;;;9.77;5.38;;;17.10;99.90;;;;;;5031006;28;20428;-36
2021/07/19 05:30:26;;;;;;;6.97;5.32;;;17.20;99.90;;;;;;5017594;28;20025;-36
2021/07/19 05:32:52;;;;;;;6.85;4.78;;;17.20;99.90;;;;;;5031748;28;20025;-36
2021/07/19 05:35:21;;;;;;;6.70;4.70;;;17.40;99.90;;;;;;5017873;28;20028;-36
2021/07/19 05:37:48;;;;;;;6.07;5.13;;;17.40;99.90;;;;;;5030622;28;20029;-36
2021/07/19 05:40:14;;;;;;;7.60;5.03;;;17.50;99.90;;;;;;5013288;28;20046;-36
2021/07/19 05:42:41;;;;;;;6.38;4.45;;;17.60;99.90;;;;;;5027981;28;20038;-36
2021/07/19 05:45:08;;;;;;;6.32;4.50;;;17.60;99.90;;;;;;5019351;28;20030;-36
2021/07/19 05:47:34;;;;;;;8.10;4.97;;;17.70;99.90;;;;;;5011727;28;20493;-36
2021/07/19 05:50:00;;;;;;;9.10;5.03;;;17.80;99.90;;;;;;5015049;28;20055;-36
2021/07/19 05:52:26;;;;;;;7.90;4.78;;;17.90;99.90;;;;;;5014265;28;20010;-36
2021/07/19 05:54:52;;;;;;;6.57;4.70;;;18.00;99.90;;;;;;5013770;28;20076;-36
2021/07/19 05:57:18;;;;;;;6.13;4.82;;;18.10;99.90;;;;;;5016951;28;20072;-36
2021/07/19 05:59:43;;;;;;;5.93;4.47;;;18.20;99.90;;;;;;5011370;28;20504;-36
2021/07/19 06:02:09;;;;;;;5.85;4.70;;;18.20;99.90;;;;;;5020643;28;20042;-36
2021/07/19 06:04:35;;;;;;;6.85;5.28;;;18.30;99.90;;;;;;5009352;28;20579;-36
2021/07/19 06:07:01;;;;;;;7.30;4.65;;;18.40;99.90;;;;;;5025762;28;20025;-36
2021/07/19 06:09:26;;;;;;;5.70;4.65;;;18.40;99.90;;;;;;5004073;28;20052;-36
2021/07/19 06:11:52;;;;;;;7.70;5.40;;;18.50;99.90;;;;;;5003432;28;20116;-36
2021/07/19 06:14:17;;;;;;;9.65;5.78;;;18.60;99.90;;;;;;5005621;28;20034;-36
2021/07/19 06:16:43;;;;;;;8.13;5.30;;;18.70;99.90;;;;;;5022529;28;20025;-36
2021/07/19 06:19:08;;;;;;;9.15;5.30;;;18.80;99.90;;;;;;5010807;28;20024;-36
2021/07/19 06:21:34;;;;;;;6.60;5.40;;;18.80;99.90;;;;;;5015643;28;20029;-36
2021/07/19 06:24:00;;;;;;;7.13;5.40;;;18.80;99.90;;;;;;5010250;28;20100;-36
2021/07/19 06:26:25;;;;;;;7.13;5.32;;;18.90;99.90;;;;;;5011248;28;20030;-36
2021/07/19 06:28:51;;;;;;;5.43;4.88;;;18.90;99.90;;;;;;5011120;28;20022;-36
2021/07/19 06:31:16;;;;;;;7.65;5.53;;;18.90;99.90;;;;;;5015742;28;20022;-36
2021/07/19 06:33:42;;;;;;;8.43;6.13;;;18.90;99.90;;;;;;5015998;28;20022;-36
2021/07/19 06:36:07;;;;;;;6.25;5.13;;;18.90;99.90;;;;;;5013918;28;20488;-36
2021/07/19 06:38:33;;;;;;;7.53;5.63;;;18.90;99.90;;;;;;5018363;28;20477;-36
2021/07/19 06:40:59;;;;;;;8.68;5.68;;;19.00;99.90;;;;;;5011749;28;20149;-36
2021/07/19 06:43:24;;;;;;;8.23;5.90;;;19.10;99.90;;;;;;5020687;28;20393;-36
2021/07/19 06:45:50;;;;;;;7.38;5.40;;;19.20;99.90;;;;;;5011027;28;20472;-37
2021/07/19 06:48:16;;;;;;;8.88;5.30;;;19.30;99.90;;;;;;5020529;28;20028;-36
2021/07/19 06:50:42;;;;;;;7.43;5.10;;;19.30;99.90;;;;;;5009798;28;20084;-36
2021/07/19 06:53:08;;;;;;;6.65;5.25;;;19.30;99.90;;;;;;5021735;28;20049;-36
2021/07/19 06:55:34;;;;;;;6.88;5.00;;;19.30;99.90;;;;;;5009498;28;20457;-36
2021/07/19 06:57:59;;;;;;;8.82;5.43;;;19.30;99.90;;;;;;5022247;28;20025;-36
2021/07/19 07:00:25;;;;;;;9.00;5.30;;;19.30;99.90;;;;;;5008616;28;20026;-36
2021/07/19 07:02:51;;;;;;;7.43;5.30;;;19.40;99.90;;;;;;5019395;28;20103;-36
2021/07/19 07:05:17;;;;;;;6.75;5.03;;;19.50;99.90;;;;;;5012673;28;20107;-36
2021/07/19 07:07:44;;;;;;;11.88;5.13;;;19.50;99.90;;;;;;5016319;28;20029;-36
2021/07/19 07:10:10;;;;;;;7.30;5.22;;;19.60;99.90;;;;;;5014157;28;20030;-36
2021/07/19 07:12:38;;;;;;;9.82;5.43;;;19.60;99.90;;;;;;5014429;28;20021;-37
2021/07/19 07:15:05;;;;;;;9.00;5.15;;;19.70;99.90;;;;;;5016039;28;20119;-36
2021/07/19 07:17:31;;;;;;;7.40;5.28;;;19.80;99.90;;;;;;5011834;28;20065;-44
2021/07/19 07:19:56;;;;;;;8.73;5.25;;;19.80;99.90;;;;;;5018614;28;20068;-36
2021/07/19 07:22:22;;;;;;;10.43;5.82;;;19.80;99.90;;;;;;5009026;28;20092;-36
2021/07/19 07:24:48;;;;;;;8.32;5.10;;;19.90;99.90;;;;;;5020757;28;20042;-36
2021/07/19 07:27:13;;;;;;;9.07;5.95;;;19.90;99.90;;;;;;5006672;28;20029;-36
2021/07/19 07:29:40;;;;;;;9.18;5.68;;;20.00;99.90;;;;;;5015900;28;20084;-36
2021/07/19 07:32:06;;;;;;;9.25;5.57;;;20.00;99.90;;;;;;4996630;28;20105;-36
2021/07/19 07:34:32;;;;;;;7.95;5.72;;;20.00;99.90;;;;;;5020543;28;20053;-36
2021/07/19 07:36:58;;;;;;;7.43;5.25;;;20.10;99.90;;;;;;5008972;28;20042;-36
2021/07/19 07:39:23;;;;;;;7.15;5.38;;;20.10;99.90;;;;;;5020427;28;20040;-36
2021/07/19 07:41:49;;;;;;;8.27;5.30;;;20.10;99.90;;;;;;5008442;28;20493;-36
2021/07/19 07:44:15;;;;;;;9.35;5.43;;;20.20;99.90;;;;;;5006135;28;20038;-36
2021/07/19 07:46:42;;;;;;;7.07;5.55;;;20.20;99.90;;;;;;5025987;28;20064;-37
2021/07/19 07:49:08;;;;;;;6.18;5.03;;;20.30;99.90;;;;;;5026306;28;20052;-36
2021/07/19 07:51:34;;;;;;;7.18;5.20;;;20.40;99.90;;;;;;5004137;28;20473;-37
2021/07/19 07:53:59;;;;;;;7.78;5.43;;;20.50;99.90;;;;;;5009330;28;20116;-36
2021/07/19 07:56:26;;;;;;;7.10;5.45;;;20.60;99.90;;;;;;5015092;28;20532;-36
2021/07/19 07:58:52;;;;;;;8.30;5.53;;;20.60;99.90;;;;;;5011499;28;20116;-36
2021/07/19 08:01:20;;;;;;;7.20;5.20;;;20.70;99.70;;;;;;5010030;28;20443;-36
2021/07/19 08:03:45;;;;;;;8.02;5.28;;;20.80;99.50;;;;;;4991897;28;20053;-36
2021/07/19 08:06:11;;;;;;;6.28;5.15;;;20.80;99.50;;;;;;5016375;28;20026;-36
2021/07/19 08:08:37;;;;;;;7.53;5.68;;;20.90;99.60;;;;;;5020395;28;20022;-36
2021/07/19 08:11:05;;;;;;;7.10;5.43;;;21.10;99.40;;;;;;5016760;28;20009;-36
2021/07/19 08:13:30;;;;;;;6.70;5.55;;;21.20;99.00;;;;;;5026520;28;20415;-36
2021/07/19 08:15:56;;;;;;;6.95;5.10;;;21.30;98.40;;;;;;5015469;28;20027;-36
2021/07/19 08:18:22;;;;;;;7.85;5.28;;;21.40;98.60;;;;;;5027650;28;20013;-36
2021/07/19 08:20:48;;;;;;;6.05;5.05;;;21.50;98.50;;;;;;5016709;28;20030;-36
2021/07/19 08:23:14;;;;;;;7.10;5.28;;;21.50;98.40;;;;;;5027923;28;20026;-36
2021/07/19 08:25:40;;;;;;;8.48;6.20;;;21.60;98.40;;;;;;5017157;28;20056;-37
2021/07/19 08:28:06;;;;;;;7.60;5.57;;;21.60;98.00;;;;;;5027177;28;20045;-36
2021/07/19 08:30:32;;;;;;;8.10;6.05;;;21.50;98.00;;;;;;5019587;28;20544;-36
2021/07/19 08:32:58;;;;;;;8.50;5.65;;;21.50;97.80;;;;;;5023432;28;20109;-37
2021/07/19 08:35:25;;;;;;;6.90;5.40;;;21.40;97.90;;;;;;5022233;28;20377;-36
2021/07/19 08:37:53;;;;;;;6.95;5.85;;;21.40;98.10;;;;;;5021769;28;20108;-36
2021/07/19 08:40:21;;;;;;;7.22;5.65;;;21.40;98.00;;;;;;5024108;28;20029;-36
2021/07/19 08:42:48;;;;;;;5.75;5.15;;;21.40;97.90;;;;;;5018461;28;20492;-37
2021/07/19 08:45:14;;;;;;;7.53;5.38;;;21.50;97.90;;;;;;5026129;28;20037;-36
2021/07/19 08:47:43;;;;;;;7.15;5.60;;;21.50;97.80;;;;;;5016198;28;20025;-36
2021/07/19 08:50:10;;;;;;;6.70;5.18;;;21.60;97.80;;;;;;5029250;28;20025;-36
2021/07/19 08:52:36;;;;;;;7.10;5.13;;;21.50;97.80;;;;;;5019369;28;20068;-36
2021/07/19 08:55:07;;;;;;;8.27;5.65;;;21.60;97.80;;;;;;5032037;28;20067;-36
2021/07/19 08:57:34;;;;;;;7.70;5.55;;;21.60;97.70;;;;;;5019615;28;20029;-37
2021/07/19 09:00:03;;;;;;;7.43;6.00;;;21.50;97.60;;;;;;5031173;28;20366;-37
2021/07/19 09:02:30;;;;;;;8.10;5.88;;;21.50;97.70;;;;;;5018189;28;20041;-36
2021/07/19 09:04:56;;;;;;;6.90;5.95;;;21.40;97.70;;;;;;5031325;28;20436;-36
2021/07/19 09:07:22;;;;;;;8.02;6.30;;;21.40;97.70;;;;;;5022483;28;20021;-36
2021/07/19 09:09:50;;;;;;;7.43;6.30;;;21.40;97.50;;;;;;5031998;28;20069;-36
2021/07/19 09:12:17;;;;;;;7.80;6.20;;;21.40;97.40;;;;;;5020185;28;20025;-36
2021/07/19 09:14:46;;;;;;;6.38;5.72;;;21.40;97.40;;;;;;5028519;28;20398;-36
2021/07/19 09:17:23;;;;;;;9.15;6.57;;;21.40;97.30;;;;;;5022785;28;20350;-37
2021/07/19 09:19:49;;;;;;;8.38;5.97;;;21.50;97.30;;;;;;5029390;28;20025;-36
2021/07/19 09:22:22;;;;;;;8.38;6.35;;;21.60;97.30;;;;;;5023768;28;20079;-37
2021/07/19 09:24:48;;;;;;;7.63;5.75;;;21.70;97.10;;;;;;5000048;28;20066;-37
2021/07/19 09:27:22;;;;;;;6.65;5.95;;;22.00;97.00;;;;;;5017668;28;20491;-36
2021/07/19 09:29:48;;;;;;;7.55;5.78;;;22.20;96.60;;;;;;5016391;28;20365;-36
2021/07/19 09:32:15;;;;;;;7.28;5.75;;;22.30;96.30;;;;;;5016653;28;20026;-36
2021/07/19 09:34:41;;;;;;;8.18;5.40;;;22.40;96.30;;;;;;5017739;28;20109;-36
2021/07/19 09:37:10;;;;;;;6.53;5.93;;;22.50;96.30;;;;;;5013473;28;20021;-37
2021/07/19 09:39:45;;;;;;;8.07;5.93;;;22.50;96.30;;;;;;5020467;28;20022;-37
2021/07/19 09:42:12;;;;;;;7.88;5.93;;;22.50;96.40;;;;;;5012588;28;20022;-36
2021/07/19 09:44:38;;;;;;;7.25;6.28;;;22.50;96.50;;;;;;5020953;28;20127;-36
2021/07/19 09:47:07;;;;;;;7.10;5.97;;;22.40;96.40;;;;;;5013341;28;20084;-37
2021/07/19 09:49:33;;;;;;;7.97;6.20;;;22.40;96.40;;;;;;5020877;28;20033;-37
2021/07/19 09:52:01;;;;;;;6.43;5.80;;;22.50;96.40;;;;;;5011707;28;20033;-36
2021/07/19 09:54:41;;;;;;;6.32;5.70;;;22.50;96.20;;;;;;5020982;28;20484;-36
2021/07/19 09:57:07;;;;;;;10.32;6.10;;;22.60;96.20;;;;;;5011753;28;20061;-36
2021/07/19 09:59:36;;;;;;;9.82;6.40;;;22.70;96.00;;;;;;5022269;28;20057;-36
2021/07/19 10:02:02;;;;;;;8.32;6.25;;;22.80;95.80;;;;;;5009693;28;20076;-37
2021/07/19 10:04:28;;;;;;;7.43;6.05;;;22.70;95.70;;;;;;5016095;28;20030;-37
2021/07/19 10:06:55;;;;;;;7.32;5.90;;;22.60;95.70;;;;;;5018086;28;20566;-36
2021/07/19 10:09:22;;;;;;;8.90;7.85;;;22.60;95.90;;;;;;5016684;28;20030;-36
2021/07/19 10:11:50;;;;;;;17.00;12.30;;;22.50;95.90;;;;;;4988625;28;20393;-36
2021/07/19 10:14:29;;;;;;;18.67;12.95;;;22.40;95.90;;;;;;5012649;28;20029;-36
2021/07/19 10:16:59;;;;;;;36.05;21.80;;;22.30;96.00;;;;;;5007324;28;20280;-36
2021/07/19 10:19:27;;;;;;;23.23;15.68;;;22.20;96.00;;;;;;5016358;28;20025;-36
2021/07/19 10:21:53;;;;;;;19.08;12.43;;;22.20;95.90;;;;;;5010517;28;20144;-36
2021/07/19 10:24:20;;;;;;;13.25;9.82;;;22.20;96.10;;;;;;5014495;28;20038;-36
2021/07/19 10:26:47;;;;;;;10.30;7.70;;;22.20;95.70;;;;;;5012441;28;20017;-36
2021/07/19 10:29:14;;;;;;;9.77;6.90;;;22.20;95.90;;;;;;5015764;28;20180;-36
2021/07/19 10:31:40;;;;;;;11.30;7.47;;;22.20;96.00;;;;;;5016013;28;20022;-37
2021/07/19 10:34:07;;;;;;;8.52;6.80;;;22.40;95.80;;;;;;5013282;28;20292;-36
2021/07/19 10:36:43;;;;;;;8.57;6.50;;;22.50;95.60;;;;;;5018603;28;20026;-36
2021/07/19 10:39:20;;;;;;;7.80;6.55;;;22.60;95.60;;;;;;5012156;28;20032;-37
2021/07/19 10:42:02;;;;;;;7.45;6.20;;;22.50;95.30;;;;;;5018424;28;20065;-36
2021/07/19 10:44:33;;;;;;;8.18;6.28;;;22.50;95.40;;;;;;5012063;28;20040;-36
2021/07/19 10:47:22;;;;;;;7.05;5.85;;;22.40;95.20;;;;;;5018340;28;20374;-36
2021/07/19 10:49:59;;;;;;;7.47;6.60;;;22.50;95.40;;;;;;5014003;28;20006;-37
2021/07/19 10:52:38;;;;;;;8.50;6.53;;;22.60;95.50;;;;;;5015057;28;20034;-36
2021/07/19 10:55:06;;;;;;;7.72;6.45;;;22.70;95.50;;;;;;5014853;28;20013;-37
2021/07/19 10:57:46;;;;;;;7.25;6.18;;;22.80;95.30;;;;;;5015373;28;20021;-40
2021/07/19 11:00:19;;;;;;;7.30;6.30;;;22.90;95.20;;;;;;5007941;28;20041;-46
2021/07/19 11:02:44;;;;;;;7.45;6.25;;;23.00;95.20;;;;;;5021495;28;20103;-47
2021/07/19 11:05:13;;;;;;;6.60;5.90;;;23.00;95.20;;;;;;5025752;28;20034;-45
2021/07/19 11:07:42;;;;;;;8.85;6.53;;;23.20;95.10;;;;;;5005531;28;20026;-46
2021/07/19 11:10:17;;;;;;;9.65;7.00;;;23.40;94.50;;;;;;5009945;28;20429;-46
2021/07/19 11:12:51;;;;;;;7.72;6.70;;;23.50;94.50;;;;;;5017438;28;20040;-45
2021/07/19 11:15:18;;;;;;;8.88;6.43;;;23.50;94.30;;;;;;5010535;28;20029;-46
2021/07/19 11:17:44;;;;;;;6.80;6.10;;;23.50;94.00;;;;;;5018693;28;20381;-45
2021/07/19 11:20:12;;;;;;;7.50;6.70;;;23.50;94.10;;;;;;5009526;28;20014;-46
2021/07/19 11:22:38;;;;;;;11.45;7.63;;;23.50;93.80;;;;;;5019535;28;20031;-46
2021/07/19 11:25:15;;;;;;;8.43;7.07;;;23.30;92.60;;;;;;5009881;28;20042;-42
2021/07/19 11:27:49;;;;;;;7.70;6.90;;;23.20;93.30;;;;;;5015585;28;20500;-45
2021/07/19 11:30:20;;;;;;;7.63;6.53;;;23.20;93.60;;;;;;5009998;28;20484;-46
2021/07/19 11:32:46;;;;;;;9.40;7.55;;;23.30;93.80;;;;;;5016742;28;20072;-41
2021/07/19 11:35:13;;;;;;;9.88;8.07;;;23.30;92.40;;;;;;5009257;28;20029;-43
2021/07/19 11:37:41;;;;;;;9.60;8.20;;;23.20;91.70;;;;;;5020559;28;20037;-41
2021/07/19 11:40:09;;;;;;;11.82;7.72;;;23.20;91.90;;;;;;5009563;28;20037;-44
2021/07/19 11:42:45;;;;;;;8.75;7.45;;;23.20;92.30;;;;;;5020202;28;20070;-44
2021/07/19 11:45:19;;;;;;;9.50;7.68;;;23.40;92.60;;;;;;5009659;28;20429;-46
2021/07/19 11:47:46;;;;;;;11.15;8.13;;;23.50;91.90;;;;;;5021466;28;20037;-46
2021/07/19 11:50:21;;;;;;;11.10;7.78;;;23.60;91.70;;;;;;5009042;28;20103;-46
2021/07/19 11:52:49;;;;;;;10.70;7.63;;;23.60;91.90;;;;;;5020388;28;20109;-47
2021/07/19 11:55:18;;;;;;;9.38;7.90;;;23.60;92.10;;;;;;4989497;28;20076;-46
2021/07/19 11:57:46;;;;;;;8.82;7.22;;;23.70;92.10;;;;;;5013361;28;20034;-46
2021/07/19 12:00:25;;;;;;;9.35;8.20;;;23.70;92.10;;;;;;5010984;28;20604;-44
2021/07/19 12:03:10;;;;;;;10.30;8.43;;;23.80;91.70;;;;;;5017885;28;20104;-45
2021/07/19 12:05:36;;;;;;;10.45;8.13;;;23.80;91.40;;;;;;4989069;28;20548;-46
2021/07/19 12:08:07;;;;;;;10.38;7.95;;;23.90;91.50;;;;;;5013093;28;20105;-46
2021/07/19 12:10:36;;;;;;;10.77;8.32;;;23.90;91.60;;;;;;5010208;28;20489;-46
2021/07/19 12:13:16;;;;;;;10.65;8.13;;;23.80;91.40;;;;;;5017756;28;20068;-46
2021/07/19 12:15:53;;;;;;;10.10;8.38;;;23.60;91.60;;;;;;4998390;28;20034;-45
2021/07/19 12:18:28;;;;;;;9.82;7.60;;;23.60;91.70;;;;;;5011394;28;20017;-46
2021/07/19 12:20:56;;;;;;;9.32;7.72;;;23.50;91.40;;;;;;5010823;28;20166;-46
2021/07/19 12:23:21;;;;;;;10.68;7.65;;;23.40;91.60;;;;;;5016109;28;20524;-45
2021/07/19 12:25:56;;;;;;;8.50;7.53;;;23.30;91.80;;;;;;5015875;28;20030;-44
2021/07/19 12:28:22;;;;;;;12.65;8.48;;;23.40;92.10;;;;;;5018766;28;20028;-46
2021/07/19 12:30:47;;;;;;;10.45;8.73;;;23.40;92.00;;;;;;5017865;28;20018;-44
2021/07/19 12:33:21;;;;;;;8.45;7.55;;;23.40;92.00;;;;;;5017091;28;20393;-47
2021/07/19 12:35:50;;;;;;;9.68;7.65;;;23.40;92.10;;;;;;5019679;28;20049;-46
2021/07/19 12:38:19;;;;;;;11.15;7.70;;;23.40;92.20;;;;;;5015797;28;20022;-44
2021/07/19 12:40:44;;;;;;;10.60;8.00;;;23.40;92.40;;;;;;5020570;28;20093;-44
2021/07/19 12:43:10;;;;;;;9.60;7.90;;;23.40;92.30;;;;;;5013671;28;20469;-43
2021/07/19 12:45:38;;;;;;;10.27;7.90;;;23.40;92.40;;;;;;5022349;28;20043;-42
2021/07/19 12:48:04;;;;;;;11.20;8.23;;;23.50;92.30;;;;;;5013559;28;20025;-43
2021/07/19 12:50:30;;;;;;;9.02;7.47;;;23.60;91.90;;;;;;5023118;28;20433;-44